createdAt,value
2023-04-08T00:00:52.260Z,11.77
2023-04-08T00:03:42.407Z,12.60
2023-04-08T00:06:32.068Z,13.23
2023-04-08T00:09:20.682Z,12.95
2023-04-08T00:12:11.286Z,9.60
2023-04-08T00:15:00.034Z,12.98
2023-04-08T00:17:48.715Z,10.18
2023-04-08T00:20:38.942Z,12.07
2023-04-08T00:23:27.538Z,11.63
2023-04-08T00:26:17.177Z,11.85
2023-04-08T00:29:07.790Z,12.35
2023-04-08T00:31:56.694Z,11.27
2023-04-08T00:34:46.401Z,12.03
2023-04-08T00:37:35.520Z,10.97
2023-04-08T00:40:25.402Z,12.23
2023-04-08T00:43:14.541Z,10.60
2023-04-08T00:46:05.198Z,12.63
2023-04-08T00:48:54.000Z,12.53
2023-04-08T00:51:43.454Z,11.57
2023-04-08T00:54:32.529Z,10.60
2023-04-08T00:57:22.087Z,10.63
2023-04-08T01:00:12.247Z,11.73
2023-04-08T01:03:12.705Z,11.98
2023-04-08T01:06:11.482Z,12.75
2023-04-08T01:09:01.635Z,11.87
2023-04-08T01:11:53.593Z,12.20
2023-04-08T01:14:46.949Z,14.45
2023-04-08T01:17:39.603Z,13.10
2023-04-08T01:20:30.771Z,12.90
2023-04-08T01:23:44.663Z,12.30
2023-04-08T01:26:35.068Z,12.67
2023-04-08T01:29:25.852Z,13.47
2023-04-08T01:32:16.963Z,15.37
2023-04-08T01:35:07.336Z,14.93
2023-04-08T01:37:57.752Z,15.43
2023-04-08T01:40:47.601Z,12.90
2023-04-08T01:43:41.013Z,13.97
2023-04-08T01:46:31.526Z,12.63
2023-04-08T01:49:22.671Z,12.37
2023-04-08T01:52:12.964Z,12.80
2023-04-08T01:55:01.767Z,13.67
2023-04-08T01:57:53.902Z,11.18
2023-04-08T02:00:43.953Z,13.70
2023-04-08T02:03:37.990Z,13.53
2023-04-08T02:06:29.223Z,12.18
2023-04-08T02:09:18.633Z,13.65
2023-04-08T02:12:07.530Z,14.97
2023-04-08T02:14:58.059Z,13.63
2023-04-08T02:17:51.723Z,13.68
2023-04-08T02:20:48.841Z,13.93
2023-04-08T02:23:40.905Z,14.43
2023-04-08T02:26:29.530Z,15.23
2023-04-08T02:29:20.819Z,12.00
2023-04-08T02:32:11.940Z,13.47
2023-04-08T02:35:04.269Z,13.90
2023-04-08T02:37:53.378Z,14.32
2023-04-08T02:40:42.488Z,13.55
2023-04-08T02:43:33.031Z,14.67
2023-04-08T02:46:21.738Z,12.20
2023-04-08T02:49:11.398Z,13.80
2023-04-08T02:52:01.443Z,13.73
2023-04-08T02:54:50.511Z,11.90
2023-04-08T02:57:41.474Z,14.07
2023-04-08T03:00:30.077Z,13.47
2023-04-08T03:03:19.647Z,12.30
2023-04-08T03:06:08.318Z,14.50
2023-04-08T03:08:58.405Z,14.75
2023-04-08T03:11:53.002Z,14.17
2023-04-08T03:14:41.576Z,14.23
2023-04-08T03:17:34.196Z,15.52
2023-04-08T03:20:22.863Z,14.87
2023-04-08T03:23:12.282Z,15.77
2023-04-08T03:26:02.365Z,16.20
2023-04-08T03:28:54.064Z,13.00
2023-04-08T03:31:42.941Z,13.23
2023-04-08T03:34:32.301Z,13.50
2023-04-08T03:37:20.890Z,16.37
2023-04-08T03:40:11.428Z,14.23
2023-04-08T03:43:01.458Z,12.83
2023-04-08T03:45:50.767Z,13.07
2023-04-08T03:48:39.473Z,13.27
2023-04-08T03:51:28.677Z,15.67
2023-04-08T03:54:17.309Z,14.47
2023-04-08T03:57:06.972Z,13.50
2023-04-08T03:59:57.387Z,13.17
2023-04-08T04:02:46.718Z,17.67
2023-04-08T04:05:35.469Z,14.32
2023-04-08T04:08:24.480Z,14.17
2023-04-08T04:11:13.102Z,13.65
2023-04-08T04:14:02.258Z,13.80
2023-04-08T04:16:52.229Z,14.37
2023-04-08T04:19:41.714Z,13.10
2023-04-08T04:22:30.317Z,14.57
2023-04-08T04:25:19.509Z,13.23
2023-04-08T04:28:09.921Z,12.63
2023-04-08T04:30:59.068Z,13.37
2023-04-08T04:33:49.568Z,13.43
2023-04-08T04:36:38.144Z,14.30
2023-04-08T04:39:27.689Z,16.67
2023-04-08T04:42:16.431Z,14.37
2023-04-08T04:45:06.429Z,14.83
2023-04-08T04:47:55.527Z,14.50
2023-04-08T04:50:45.594Z,13.30
2023-04-08T04:53:34.976Z,13.37
2023-04-08T04:56:23.914Z,13.20
2023-04-08T04:59:12.475Z,14.67
2023-04-08T05:02:01.956Z,16.77
2023-04-08T05:04:53.564Z,15.43
2023-04-08T05:07:44.395Z,14.60
2023-04-08T05:10:33.010Z,13.33
2023-04-08T05:13:23.764Z,14.67
2023-04-08T05:16:12.396Z,13.40
2023-04-08T05:19:01.930Z,15.20
2023-04-08T05:21:51.010Z,16.97
2023-04-08T05:24:41.434Z,14.20
2023-04-08T05:27:30.442Z,14.73
2023-04-08T05:30:19.299Z,15.27
2023-04-08T05:33:08.883Z,14.90
2023-04-08T05:35:57.605Z,13.30
2023-04-08T05:38:47.118Z,14.37
2023-04-08T05:41:37.057Z,17.70
2023-04-08T05:44:26.311Z,15.97
2023-04-08T05:47:15.102Z,16.77
2023-04-08T05:50:04.879Z,17.83
2023-04-08T05:52:53.495Z,17.10
2023-04-08T05:55:43.108Z,14.97
2023-04-08T05:58:33.080Z,15.55
2023-04-08T06:01:21.706Z,14.60
2023-04-08T06:04:10.483Z,17.67
2023-04-08T06:07:02.493Z,14.83
2023-04-08T06:09:51.498Z,16.80
2023-04-08T06:12:40.290Z,15.13
2023-04-08T06:15:30.757Z,17.67
2023-04-08T06:18:19.445Z,15.15
2023-04-08T06:21:08.606Z,15.70
2023-04-08T06:23:57.322Z,17.73
2023-04-08T06:26:48.406Z,15.07
2023-04-08T06:29:37.164Z,15.87
2023-04-08T06:32:29.105Z,15.40
2023-04-08T06:35:17.807Z,18.03
2023-04-08T06:38:07.028Z,16.33
2023-04-08T06:40:56.463Z,14.27
2023-04-08T06:43:46.906Z,17.03
2023-04-08T06:46:35.491Z,16.47
2023-04-08T06:49:27.457Z,15.27
2023-04-08T06:52:16.965Z,17.90
2023-04-08T06:55:07.241Z,16.43
2023-04-08T06:57:55.781Z,18.08
2023-04-08T07:00:45.454Z,16.93
2023-04-08T07:03:34.180Z,17.13
2023-04-08T07:06:25.030Z,16.33
2023-04-08T07:09:14.091Z,19.77
2023-04-08T07:12:04.244Z,15.57
2023-04-08T07:14:53.619Z,18.23
2023-04-08T07:17:42.593Z,14.23
2023-04-08T07:20:32.372Z,18.30
2023-04-08T07:23:22.971Z,21.50
2023-04-08T07:26:11.927Z,20.57
2023-04-08T07:29:01.151Z,19.37
2023-04-08T07:31:49.751Z,28.13
2023-04-08T07:34:39.253Z,17.35
2023-04-08T07:37:27.879Z,29.15
2023-04-08T07:40:19.735Z,27.40
2023-04-08T07:43:09.163Z,20.85
2023-04-08T07:46:03.527Z,39.33
2023-04-08T07:48:52.966Z,56.53
2023-04-08T07:51:42.625Z,43.88
2023-04-08T07:54:34.183Z,55.20
2023-04-08T07:57:25.320Z,18.70
2023-04-08T08:00:20.814Z,19.27
2023-04-08T08:03:10.547Z,17.17
2023-04-08T08:05:59.221Z,19.25
2023-04-08T08:08:48.958Z,18.83
2023-04-08T08:11:37.555Z,17.97
2023-04-08T08:14:28.247Z,15.93
2023-04-08T08:17:16.794Z,16.60
2023-04-08T08:20:07.196Z,16.30
2023-04-08T08:22:57.818Z,16.88
2023-04-08T08:25:47.736Z,14.40
2023-04-08T08:28:36.685Z,15.77
2023-04-08T08:31:26.636Z,14.80
2023-04-08T08:34:15.513Z,15.57
2023-04-08T08:37:04.726Z,15.67
2023-04-08T08:39:53.727Z,17.65
2023-04-08T08:42:42.450Z,15.77
2023-04-08T08:45:32.051Z,16.13
2023-04-08T08:48:22.029Z,14.90
2023-04-08T08:51:10.938Z,14.80
2023-04-08T08:54:04.208Z,14.85
2023-04-08T08:56:53.083Z,14.47
2023-04-08T08:59:42.372Z,14.93
2023-04-08T09:02:33.855Z,14.02
2023-04-08T09:05:24.845Z,14.47
2023-04-08T09:08:24.751Z,14.87
2023-04-08T09:11:16.069Z,16.77
2023-04-08T09:14:06.710Z,15.02
2023-04-08T09:16:55.599Z,14.65
2023-04-08T09:20:09.646Z,15.20
2023-04-08T09:23:03.666Z,16.60
2023-04-08T09:25:53.376Z,14.45
2023-04-08T09:28:42.987Z,13.82
2023-04-08T09:31:33.734Z,15.00
2023-04-08T09:34:23.356Z,13.85
2023-04-08T09:37:11.935Z,13.13
2023-04-08T09:40:02.043Z,13.13
2023-04-08T09:42:53.899Z,13.77
2023-04-08T09:45:46.141Z,12.67
2023-04-08T09:48:41.129Z,13.83
2023-04-08T09:51:35.237Z,13.20
2023-04-08T09:54:28.137Z,13.97
2023-04-08T09:57:27.101Z,15.77
2023-04-08T10:00:17.625Z,15.80
2023-04-08T10:03:12.199Z,13.33
2023-04-08T10:06:04.427Z,16.85
2023-04-08T10:08:53.123Z,15.60
2023-04-08T10:11:42.246Z,16.15
2023-04-08T10:14:32.599Z,17.20
2023-04-08T10:17:29.804Z,17.23
2023-04-08T10:20:46.682Z,15.88
2023-04-08T10:23:55.926Z,18.92
2023-04-08T10:26:46.089Z,17.10
2023-04-08T10:29:36.798Z,17.17
2023-04-08T10:32:30.508Z,20.30
2023-04-08T10:35:19.481Z,18.27
2023-04-08T10:38:09.300Z,16.93
2023-04-08T10:40:58.825Z,20.13
2023-04-08T10:43:49.020Z,17.67
2023-04-08T10:46:40.005Z,17.33
2023-04-08T10:49:36.210Z,16.33
2023-04-08T10:52:27.911Z,17.63
2023-04-08T10:55:18.124Z,17.50
2023-04-08T10:58:09.703Z,17.50
2023-04-08T11:01:04.703Z,17.10
2023-04-08T11:03:55.205Z,17.27
2023-04-08T11:06:45.836Z,15.73
2023-04-08T11:09:36.134Z,16.37
2023-04-08T11:12:24.697Z,16.87
2023-04-08T11:15:15.365Z,18.10
2023-04-08T11:18:06.402Z,18.50
2023-04-08T11:20:57.752Z,18.77
2023-04-08T11:23:51.117Z,14.13
2023-04-08T11:26:41.514Z,15.30
2023-04-08T11:29:31.434Z,16.80
2023-04-08T11:32:20.515Z,15.57
2023-04-08T11:35:10.280Z,14.75
2023-04-08T11:38:00.328Z,19.38
2023-04-08T11:40:54.462Z,24.13
2023-04-08T11:43:53.436Z,18.25
2023-04-08T11:46:42.405Z,16.75
2023-04-08T11:49:45.303Z,14.32
2023-04-08T11:52:47.599Z,15.18
2023-04-08T11:55:38.715Z,17.63
2023-04-08T11:58:27.631Z,15.60
2023-04-08T12:01:16.293Z,15.60
2023-04-08T12:04:07.347Z,14.27
2023-04-08T12:06:57.992Z,15.63
2023-04-08T12:09:48.514Z,16.00
2023-04-08T12:12:38.591Z,15.10
2023-04-08T12:15:27.964Z,16.93
2023-04-08T12:18:17.709Z,17.73
2023-04-08T12:21:06.746Z,16.85
2023-04-08T12:23:55.804Z,15.63
2023-04-08T12:26:45.669Z,16.02
2023-04-08T12:29:35.635Z,20.02
2023-04-08T12:32:25.925Z,15.88
2023-04-08T12:35:14.975Z,16.63
2023-04-08T12:38:04.589Z,20.65
2023-04-08T12:40:54.254Z,16.27
2023-04-08T12:43:42.777Z,16.08
2023-04-08T12:46:33.290Z,17.27
2023-04-08T12:49:22.733Z,17.63
2023-04-08T12:52:12.844Z,19.13
2023-04-08T12:55:01.801Z,19.95
2023-04-08T12:57:50.546Z,23.48
2023-04-08T13:00:46.764Z,19.38
2023-04-08T13:03:36.903Z,17.77
2023-04-08T13:06:27.015Z,17.38
2023-04-08T13:09:16.130Z,15.57
2023-04-08T13:12:05.610Z,17.02
2023-04-08T13:14:55.447Z,17.33
2023-04-08T13:17:44.145Z,15.75
2023-04-08T13:20:37.391Z,15.40
2023-04-08T13:23:26.954Z,16.02
2023-04-08T13:26:15.605Z,13.75
2023-04-08T13:29:04.981Z,14.50
2023-04-08T13:31:54.285Z,15.43
2023-04-08T13:34:43.749Z,12.13
2023-04-08T13:37:34.123Z,13.25
2023-04-08T13:40:22.956Z,13.45
2023-04-08T13:43:11.695Z,13.82
2023-04-08T13:46:00.567Z,12.37
2023-04-08T13:48:49.473Z,14.85
2023-04-08T13:51:38.792Z,12.57
2023-04-08T13:54:28.713Z,15.73
2023-04-08T13:57:18.496Z,13.00
2023-04-08T14:00:08.438Z,14.98
2023-04-08T14:02:59.884Z,13.82
2023-04-08T14:05:49.087Z,15.27
2023-04-08T14:08:38.183Z,11.57
2023-04-08T14:11:28.136Z,12.47
2023-04-08T14:14:16.986Z,12.45
2023-04-08T14:17:05.895Z,11.77
2023-04-08T14:19:56.053Z,11.82
2023-04-08T14:22:44.584Z,11.02
2023-04-08T14:25:35.189Z,11.48
2023-04-08T14:28:25.219Z,11.55
2023-04-08T14:31:14.366Z,12.60
2023-04-08T14:34:03.815Z,10.63
2023-04-08T14:36:52.510Z,9.43
2023-04-08T14:39:41.484Z,9.73
2023-04-08T14:42:30.301Z,10.07
2023-04-08T14:45:20.626Z,11.93
2023-04-08T14:48:09.493Z,10.98
2023-04-08T14:50:58.686Z,13.48
2023-04-08T14:53:48.158Z,9.63
2023-04-08T14:56:37.275Z,9.93
2023-04-08T14:59:26.338Z,10.90
2023-04-08T15:02:16.517Z,10.60
2023-04-08T15:05:05.942Z,9.65
2023-04-08T15:07:55.721Z,10.20
2023-04-08T15:10:44.485Z,9.03
2023-04-08T15:13:33.346Z,9.65
2023-04-08T15:16:22.367Z,9.73
2023-04-08T15:19:12.578Z,11.18
2023-04-08T15:22:01.588Z,11.32
2023-04-08T15:24:50.327Z,11.10
2023-04-08T15:27:38.983Z,11.23
2023-04-08T15:30:27.709Z,10.52
2023-04-08T15:33:16.510Z,9.25
2023-04-08T15:36:07.273Z,10.20
2023-04-08T15:38:55.906Z,9.15
2023-04-08T15:41:44.686Z,8.23
2023-04-08T15:44:33.941Z,8.25
2023-04-08T15:47:23.309Z,9.60
2023-04-08T15:50:12.792Z,7.90
2023-04-08T15:53:02.713Z,10.20
2023-04-08T15:55:51.475Z,7.28
2023-04-08T15:58:40.098Z,7.28
2023-04-08T16:01:28.805Z,6.63
2023-04-08T16:04:19.479Z,7.75
2023-04-08T16:07:08.142Z,7.90
2023-04-08T16:09:59.072Z,7.88
2023-04-08T16:12:47.792Z,8.23
2023-04-08T16:15:37.071Z,9.73
2023-04-08T16:18:26.295Z,7.90
2023-04-08T16:21:14.852Z,8.93
2023-04-08T16:24:05.408Z,7.70
2023-04-08T16:26:55.412Z,7.43
2023-04-08T16:29:46.750Z,8.98
2023-04-08T16:32:35.566Z,8.75
2023-04-08T16:35:24.214Z,8.02
2023-04-08T16:38:13.075Z,10.93
2023-04-08T16:41:03.500Z,10.13
2023-04-08T16:43:53.943Z,8.18
2023-04-08T16:46:42.714Z,10.80
2023-04-08T16:49:31.862Z,8.30
2023-04-08T16:52:20.749Z,7.63
2023-04-08T16:55:12.893Z,8.63
2023-04-08T16:58:04.467Z,9.02
2023-04-08T17:00:54.578Z,9.07
2023-04-08T17:03:43.737Z,8.43
2023-04-08T17:06:34.552Z,8.30
2023-04-08T17:09:23.428Z,10.13
2023-04-08T17:12:14.852Z,7.82
2023-04-08T17:15:03.784Z,8.20
2023-04-08T17:17:53.707Z,7.57
2023-04-08T17:20:44.564Z,8.68
2023-04-08T17:23:33.348Z,8.60
2023-04-08T17:26:23.418Z,8.60
2023-04-08T17:29:12.228Z,10.05
2023-04-08T17:32:01.362Z,10.88
2023-04-08T17:34:51.929Z,11.02
2023-04-08T17:37:40.648Z,9.55
2023-04-08T17:40:30.048Z,11.05
2023-04-08T17:43:18.880Z,16.67
2023-04-08T17:46:08.433Z,13.48
2023-04-08T17:48:57.043Z,11.65
2023-04-08T17:51:46.953Z,8.10
2023-04-08T17:54:35.547Z,8.82
2023-04-08T17:57:24.806Z,9.77
2023-04-08T18:00:13.588Z,9.80
2023-04-08T18:03:02.217Z,9.68
2023-04-08T18:05:50.989Z,9.93
2023-04-08T18:08:41.529Z,9.73
2023-04-08T18:11:30.293Z,9.73
2023-04-08T18:14:26.234Z,8.60
2023-04-08T18:17:15.145Z,8.88
2023-04-08T18:20:04.992Z,10.57
2023-04-08T18:22:53.883Z,9.05
2023-04-08T18:25:46.930Z,10.18
2023-04-08T18:28:35.466Z,9.00
2023-04-08T18:31:25.080Z,9.93
2023-04-08T18:34:13.711Z,11.20
2023-04-08T18:37:03.284Z,9.77
2023-04-08T18:39:52.233Z,10.73
2023-04-08T18:42:42.163Z,15.65
2023-04-08T18:45:30.765Z,78.82
2023-04-08T18:48:19.457Z,47.42
2023-04-08T18:51:08.148Z,14.33
2023-04-08T18:53:57.336Z,10.43
2023-04-08T18:56:45.856Z,10.73
2023-04-08T18:59:36.004Z,10.43
2023-04-08T19:02:24.901Z,11.02
2023-04-08T19:05:14.186Z,10.77
2023-04-08T19:08:03.042Z,13.82
2023-04-08T19:10:51.647Z,12.07
2023-04-08T19:13:42.000Z,16.88
2023-04-08T19:16:32.004Z,11.82
2023-04-08T19:19:20.601Z,13.38
2023-04-08T19:22:10.294Z,11.55
2023-04-08T19:25:07.785Z,10.77
2023-04-08T19:27:57.279Z,10.18
2023-04-08T19:30:45.893Z,10.18
2023-04-08T19:33:36.633Z,11.00
2023-04-08T19:36:25.993Z,11.75
2023-04-08T19:39:16.003Z,10.03
2023-04-08T19:42:04.956Z,12.20
2023-04-08T19:44:53.883Z,12.90
2023-04-08T19:47:43.649Z,15.43
2023-04-08T19:50:34.331Z,14.40
2023-04-08T19:53:22.940Z,12.33
2023-04-08T19:56:12.174Z,12.57
2023-04-08T19:59:02.594Z,14.33
2023-04-08T20:01:51.849Z,12.90
2023-04-08T20:04:40.932Z,12.52
2023-04-08T20:07:30.955Z,12.15
2023-04-08T20:10:20.601Z,13.33
2023-04-08T20:13:09.131Z,10.93
2023-04-08T20:15:58.112Z,15.23
2023-04-08T20:18:48.296Z,15.55
2023-04-08T20:21:36.862Z,13.63
2023-04-08T20:24:27.904Z,18.85
2023-04-08T20:27:16.717Z,28.58
2023-04-08T20:30:06.106Z,60.70
2023-04-08T20:32:56.346Z,26.80
2023-04-08T20:35:45.347Z,17.73
2023-04-08T20:38:35.306Z,13.43
2023-04-08T20:41:27.545Z,13.43
2023-04-08T20:44:16.466Z,14.40
2023-04-08T20:47:05.900Z,12.43
2023-04-08T20:49:55.742Z,16.77
2023-04-08T20:52:44.826Z,14.80
2023-04-08T20:55:34.994Z,13.47
2023-04-08T20:58:25.575Z,12.27
2023-04-08T21:01:14.618Z,12.60
2023-04-08T21:04:04.872Z,14.30
2023-04-08T21:06:54.349Z,12.98
2023-04-08T21:09:42.909Z,14.90
2023-04-08T21:12:33.223Z,16.65
2023-04-08T21:15:23.339Z,13.68
2023-04-08T21:18:12.854Z,15.80
2023-04-08T21:21:01.753Z,15.82
2023-04-08T21:23:51.507Z,11.32
2023-04-08T21:26:41.529Z,14.07
2023-04-08T21:29:30.126Z,11.95
2023-04-08T21:32:20.821Z,12.10
2023-04-08T21:35:10.502Z,12.07
2023-04-08T21:37:59.515Z,13.13
2023-04-08T21:40:48.090Z,12.57
2023-04-08T21:43:37.635Z,16.08
2023-04-08T21:46:26.574Z,16.25
2023-04-08T21:49:18.304Z,13.93
2023-04-08T21:52:06.952Z,13.10
2023-04-08T21:54:56.657Z,11.87
2023-04-08T21:57:45.360Z,10.83
2023-04-08T22:00:34.404Z,11.70
2023-04-08T22:03:23.205Z,12.25
2023-04-08T22:06:25.544Z,13.63
2023-04-08T22:09:21.550Z,11.20
2023-04-08T22:12:11.207Z,10.60
2023-04-08T22:14:59.804Z,10.80
2023-04-08T22:17:49.459Z,11.43
2023-04-08T22:20:38.524Z,11.13
2023-04-08T22:23:29.335Z,11.80
2023-04-08T22:26:18.763Z,11.67
2023-04-08T22:29:07.728Z,11.50
2023-04-08T22:31:56.396Z,11.52
2023-04-08T22:34:45.973Z,21.17
2023-04-08T22:37:35.045Z,25.57
2023-04-08T22:40:25.128Z,23.00
2023-04-08T22:43:15.402Z,17.47
2023-04-08T22:46:04.080Z,15.00
2023-04-08T22:48:53.758Z,17.27
2023-04-08T22:51:43.000Z,16.13
2023-04-08T22:54:32.399Z,14.50
2023-04-08T22:57:23.455Z,17.63
2023-04-08T23:00:13.197Z,13.13
2023-04-08T23:03:05.117Z,13.67
2023-04-08T23:05:54.082Z,17.60
2023-04-08T23:08:42.724Z,18.77
2023-04-08T23:11:32.185Z,19.47
2023-04-08T23:14:22.413Z,18.57
2023-04-08T23:17:11.023Z,19.50
2023-04-08T23:20:00.296Z,14.10
2023-04-08T23:22:49.309Z,11.97
2023-04-08T23:25:37.853Z,12.10
2023-04-08T23:28:27.869Z,11.23
2023-04-08T23:31:18.417Z,12.98
2023-04-08T23:34:07.593Z,12.10
2023-04-08T23:36:56.176Z,12.70
2023-04-08T23:39:44.721Z,12.43
2023-04-08T23:42:34.803Z,12.33
2023-04-08T23:45:23.391Z,12.83
2023-04-08T23:48:14.570Z,15.20
2023-04-08T23:51:03.163Z,13.53
2023-04-08T23:53:52.893Z,12.57
2023-04-08T23:56:41.962Z,12.53
2023-04-08T23:59:32.738Z,11.63
